Latest Weather Observations for Geraldton Airport

IDW60801

Issued at 6:32 pm WST Sunday 7 February 2016 (issued every 30 minutes, with the page automatically refreshed every 10 minutes)

About weather observations | Map of weather stations | Latest weather observations for WA | Other Formats
Station Details ID: 008315 Name: GERALDTON AIRPORT Lat: -28.80 Lon: 114.70 Height: 29.7 m
Data from the previous 72 hours. | See also: Recent months at Geraldton Airport
Date/Time
WST
Temp
°C
App
Temp
°C
Dew
Point
Rel
Hum
%
Delta-T
°C
Wind Press
QNH
hPa
Press
MSL
hPa
Rain
since 9 am
mm
Dir
 
Spd
km/h
Gust
km/h
Spd
kts
Gust
kts
07/06:30pm 30.2 25.9 13.3 35 10.1 SSE 28 35 15 19 1011.6 - 0.0
07/06:00pm 30.6 26.3 13.3 34 10.3 S 28 37 15 20 1011.2 1011.0 0.0
07/05:30pm 31.9 27.8 12.8 31 11.4 S 26 35 14 19 1011.0 - 0.0
07/05:00pm 33.2 28.3 11.4 26 12.8 S 28 33 15 18 1010.7 - 0.0
07/04:30pm 34.4 29.0 9.5 21 14.3 SSW 28 35 15 19 1010.5 - 0.0
07/04:00pm 35.1 29.5 10.0 21 14.5 SSW 30 39 16 21 1010.2 - 0.0
07/03:30pm 36.1 30.9 10.4 21 15.0 SSW 28 37 15 20 1010.3 - 0.0
07/03:00pm 37.0 30.5 8.2 17 16.4 SSW 32 37 17 20 1010.4 1010.2 0.0
07/02:30pm 36.9 31.4 7.7 16 16.5 SW 26 37 14 20 1010.5 - 0.0
07/02:00pm 38.2 31.8 6.9 15 17.5 SW 30 37 16 20 1010.5 - 0.0
07/01:30pm 37.5 32.1 9.5 18 16.3 SSW 28 33 15 18 1010.7 - 0.0
07/01:00pm 38.2 33.9 11.9 20 15.9 WSW 26 32 14 17 1011.0 - 0.0
07/12:30pm 39.4 36.2 11.9 19 16.7 SW 20 24 11 13 1011.3 - 0.0
07/12:00pm 40.9 36.0 -0.6 7 21.1 E 15 32 8 17 1011.6 1011.4 0.0
07/11:30am 40.4 35.7 1.2 9 20.4 NE 15 19 8 10 1011.9 - 0.0
07/11:00am 40.1 33.9 0.0 8 20.4 NE 22 32 12 17 1012.0 - 0.0
07/10:30am 39.5 32.2 0.1 8 20.1 NE 28 35 15 19 1012.2 - 0.0
07/10:00am 38.9 31.8 1.5 10 19.4 NE 28 41 15 22 1012.4 - 0.0
07/09:30am 37.4 29.9 1.3 10 18.5 NNE 30 39 16 21 1012.6 - 0.0
07/09:00am 36.1 28.9 0.8 11 17.8 NE 28 39 15 21 1012.6 1012.4 0.0
07/08:37am 34.2 28.3 1.6 12 16.5 NNE 22 28 12 15 1012.8 - 0.0
07/08:30am 29.2 28.5 11.4 33 10.3 NW 6 9 3 5 1012.8 - 0.0
07/08:00am 26.1 25.5 12.3 42 8.0 N 7 11 4 6 1012.9 - 0.0
07/07:30am 22.6 23.8 14.8 61 4.6 S 2 6 1 3 1012.8 - 0.0
07/07:00am 19.9 20.1 15.7 77 2.5 SSE 9 11 5 6 1012.6 - 0.0
07/06:30am 17.8 17.8 15.1 84 1.6 SE 9 9 5 5 1012.5 - 0.0
07/06:00am 16.7 16.9 14.7 88 1.2 ESE 7 9 4 5 1012.3 1012.1 0.0
07/05:30am 17.3 16.4 14.9 86 1.4 SSE 13 17 7 9 1012.1 - 0.0
07/05:00am 17.6 16.8 15.2 86 1.4 SSE 13 15 7 8 1011.8 - 0.0
07/04:30am 17.7 17.8 15.5 87 1.3 SSE 9 11 5 6 1011.9 - 0.0
07/04:00am 18.0 17.5 16.0 88 1.2 SSE 13 15 7 8 1011.8 - 0.0
07/03:30am 18.5 19.2 16.2 86 1.4 SSE 7 11 4 6 1011.9 - 0.0
07/03:00am 18.6 18.6 16.3 86 1.4 SE 11 15 6 8 1011.9 1011.7 0.0
07/02:30am 19.1 18.9 16.8 86 1.4 SSE 13 17 7 9 1012.0 - 0.0
07/02:00am 19.2 19.0 17.6 90 1.0 SE 15 17 8 9 1012.3 - 0.0
07/01:30am 19.6 19.6 18.0 90 1.0 SE 15 17 8 9 1012.6 - 0.0
07/01:00am 19.9 21.1 18.3 90 1.0 ESE 9 11 5 6 1013.1 - 0.0
07/12:30am 21.2 22.0 19.0 87 1.4 SSE 13 17 7 9 1013.2 - 0.0
07/12:00am 21.8 22.3 19.3 86 1.6 S 15 22 8 12 1013.5 1013.3 0.0
 
Date/Time
WST
Temp
°C
App
Temp
°C
Dew
Point
Rel
Hum
%
Delta-T
°C
Wind Press
QNH
hPa
Press
MSL
hPa
Rain
since 9 am
mm
Dir
 
Spd
km/h
Gust
km/h
Spd
kts
Gust
kts
06/11:30pm 21.9 22.2 19.6 87 1.5 S 17 20 9 11 1013.6 - 0.0
06/11:00pm 22.0 22.3 19.5 86 1.6 SSE 17 24 9 13 1013.8 - 0.0
06/10:30pm 22.3 22.1 19.3 83 1.9 S 19 24 10 13 1013.8 - 0.0
06/10:00pm 22.4 21.9 19.1 81 2.1 S 20 26 11 14 1013.7 - 0.0
06/09:30pm 22.5 21.6 19.0 80 2.2 S 22 30 12 16 1013.7 - 0.0
06/09:00pm 22.6 21.2 18.8 79 2.4 S 24 30 13 16 1013.6 1013.4 0.0
06/08:30pm 22.6 21.5 18.6 78 2.5 S 22 32 12 17 1013.3 - 0.0
06/08:00pm 22.8 21.3 18.6 77 2.6 S 24 30 13 16 1013.1 - 0.0
06/07:30pm 23.0 20.7 18.4 75 2.9 S 28 39 15 21 1012.8 - 0.0
06/07:00pm 23.5 20.1 18.1 71 3.4 S 33 41 18 22 1012.4 - 0.0
06/06:30pm 24.5 21.5 18.7 70 3.7 S 32 39 17 21 1012.1 - 0.0
06/06:00pm 25.3 21.5 18.2 64 4.5 S 35 43 19 23 1011.8 1011.6 0.0
06/05:30pm 26.5 23.3 18.1 60 5.3 S 32 41 17 22 1011.6 - 0.0
06/05:00pm 26.9 23.1 17.2 55 6.1 S 33 44 18 24 1011.3 - 0.0
06/04:30pm 28.5 25.2 17.1 50 7.2 S 30 39 16 21 1011.4 - 0.0
06/04:00pm 29.9 25.8 15.9 42 8.7 S 32 39 17 21 1011.2 - 0.0
06/03:30pm 30.0 25.8 15.8 42 8.8 S 32 39 17 21 1011.3 - 0.0
06/03:00pm 31.1 27.7 15.7 39 9.6 SSW 28 37 15 20 1011.5 1011.3 0.0
06/02:30pm 31.7 27.4 14.4 35 10.6 S 30 37 16 20 1011.5 - 0.0
06/02:00pm 30.6 26.9 16.0 41 9.1 S 30 35 16 19 1011.9 - 0.0
06/01:30pm 31.5 27.1 12.9 32 11.1 SSW 28 35 15 19 1012.0 - 0.0
06/01:00pm 32.8 29.7 13.5 31 11.7 S 22 30 12 16 1012.2 - 0.0
06/12:30pm 31.6 28.7 13.9 34 10.7 S 22 30 12 16 1012.4 - 0.0
06/12:00pm 30.2 27.2 14.8 39 9.4 SSW 24 32 13 17 1012.8 1012.6 0.0
06/11:30am 29.8 27.9 16.8 45 8.2 SSW 22 32 12 17 1013.2 - 0.0
06/11:00am 29.8 27.6 17.0 46 8.1 SSW 24 32 13 17 1013.4 - 0.0
06/10:30am 29.3 28.0 18.1 51 7.2 SSW 22 32 12 17 1013.6 - 0.0
06/10:00am 29.9 28.0 15.7 42 8.8 SSW 20 28 11 15 1013.6 - 0.0
06/09:30am 29.2 27.2 10.3 31 10.7 SSE 11 17 6 9 1013.6 - 0.0
06/09:00am 27.7 25.5 10.8 34 9.6 SSE 13 20 7 11 1013.7 1013.5 0.0
06/08:30am 26.5 24.2 13.0 43 7.9 SSE 17 24 9 13 1013.8 - 0.0
06/08:00am 24.1 22.4 14.7 55 5.6 S 17 24 9 13 1013.7 - 0.0
06/07:30am 23.0 21.3 12.3 51 6.1 SSE 13 20 7 11 1013.6 - 0.0
06/07:00am 20.2 18.8 9.5 50 5.7 SE 7 13 4 7 1013.7 - 0.0
06/06:30am 18.1 16.5 10.2 60 4.2 SE 9 11 5 6 1013.3 - 0.0
06/06:00am 16.9 14.5 9.9 63 3.7 SSE 13 15 7 8 1012.9 1012.7 0.0
06/05:30am 17.5 16.2 10.0 61 4.0 SE 7 9 4 5 1012.5 - 0.0
06/05:00am 16.9 15.4 10.5 66 3.4 SSE 9 13 5 7 1012.3 - 0.0
06/04:30am 17.1 14.8 10.4 64 3.6 SSE 13 15 7 8 1012.2 - 0.0
06/04:00am 17.5 15.3 10.8 65 3.6 SSE 13 13 7 7 1012.2 - 0.0
06/03:30am 17.7 16.7 12.3 70 3.0 SE 9 13 5 7 1012.0 - 0.0
06/03:00am 18.1 16.8 13.6 75 2.6 SSE 13 15 7 8 1011.9 1011.7 0.0
06/02:30am 18.8 17.7 15.3 80 2.1 SE 15 15 8 8 1011.9 - 0.0
06/02:00am 18.8 18.3 15.8 83 1.8 SSE 13 15 7 8 1011.9 - 0.0
06/01:30am 19.0 18.5 16.0 83 1.8 ESE 13 13 7 7 1012.0 - 0.0
06/01:00am 19.7 19.4 16.5 82 1.9 S 13 17 7 9 1012.0 - 0.0
06/12:30am 19.8 19.8 17.2 85 1.6 SE 13 15 7 8 1012.1 - 0.0
06/12:00am 20.6 20.1 17.9 84 1.7 SSE 17 19 9 10 1012.1 1011.9 0.0
 
Date/Time
WST
Temp
°C
App
Temp
°C
Dew
Point
Rel
Hum
%
Delta-T
°C
Wind Press
QNH
hPa
Press
MSL
hPa
Rain
since 9 am
mm
Dir
 
Spd
km/h
Gust
km/h
Spd
kts
Gust
kts
05/11:30pm 21.2 21.2 18.0 82 2.0 SSE 15 17 8 9 1012.5 - 0.0
05/11:00pm 20.5 20.6 16.5 78 2.4 SE 11 15 6 8 1012.5 - 0.0
05/10:30pm 22.1 21.4 16.4 70 3.5 S 15 17 8 9 1012.7 - 0.0
05/10:00pm 22.2 22.1 15.9 67 3.8 SE 11 13 6 7 1012.8 - 0.0
05/09:30pm 23.5 22.0 15.4 60 4.9 SE 17 20 9 11 1012.6 - 0.0
05/09:00pm 24.3 21.5 14.4 54 5.9 SSE 22 26 12 14 1012.5 1012.3 0.0
05/08:30pm 24.4 21.8 14.9 55 5.7 SSE 22 30 12 16 1012.4 - 0.0
05/08:00pm 24.6 22.1 15.1 55 5.7 SSE 22 28 12 15 1012.3 - 0.0
05/07:30pm 25.5 22.2 14.0 49 6.8 SSE 24 32 13 17 1012.1 - 0.0
05/07:00pm 26.3 22.3 14.1 47 7.3 SSE 28 35 15 19 1011.9 - 0.0
05/06:30pm 27.1 22.4 14.9 47 7.4 S 33 43 18 23 1011.6 - 0.0
05/06:00pm 28.1 22.2 13.7 41 8.6 S 37 46 20 25 1011.3 1011.1 0.0
05/05:30pm 29.0 22.9 12.9 37 9.5 S 37 46 20 25 1011.1 - 0.0
05/05:00pm 31.2 24.9 11.0 28 11.7 SSW 35 44 19 24 1010.6 - 0.0
05/04:30pm 32.8 25.9 8.8 22 13.5 SSW 35 44 19 24 1010.4 - 0.0
05/04:00pm 34.6 27.1 4.5 15 16.0 SSW 33 43 18 23 1010.2 - 0.0
05/03:30pm 36.1 28.9 5.2 14 16.7 SSW 32 41 17 22 1010.1 - 0.0
05/03:00pm 36.3 29.0 5.4 15 16.8 SW 33 41 18 22 1010.1 1009.9 0.0
05/02:30pm 37.0 29.0 1.6 11 18.2 SW 33 43 18 23 1010.0 - 0.0
05/02:00pm 36.0 28.2 5.1 14 16.7 SW 35 44 19 24 1010.2 - 0.0
05/01:30pm 37.4 30.9 4.7 13 17.7 SW 28 39 15 21 1010.4 - 0.0
05/01:00pm 36.8 29.5 2.5 12 17.8 SW 30 39 16 21 1010.7 - 0.0
05/12:30pm 36.7 30.0 3.4 12 17.6 SW 28 37 15 20 1011.0 - 0.0
05/12:00pm 37.1 32.8 1.3 10 18.3 SE 13 22 7 12 1011.5 1011.3 0.0
05/11:30am 36.3 32.1 1.9 11 17.7 ESE 13 22 7 12 1011.9 - 0.0
05/11:00am 36.6 30.3 -1.0 9 18.5 SE 22 32 12 17 1012.1 - 0.0
05/10:30am 36.5 31.5 1.5 11 17.9 NE 17 30 9 16 1012.4 - 0.0
05/10:00am 35.6 29.5 3.0 13 17.0 NNE 24 33 13 18 1012.7 - 0.0
05/09:30am 34.0 27.3 3.9 15 15.8 NNE 28 33 15 18 1012.8 - 0.0
05/09:00am 32.5 25.6 4.4 17 14.7 NE 30 37 16 20 1013.0 1012.8 0.0
05/08:30am 31.1 24.2 4.7 19 13.8 NE 30 35 16 19 1013.0 - 0.0
05/08:00am 30.2 22.3 4.5 19 13.3 NE 35 41 19 22 1012.9 - 0.0
05/07:30am 27.7 22.5 5.6 24 11.5 NE 22 26 12 14 1013.0 - 0.0
05/07:00am 25.0 20.2 5.4 28 10.0 NNE 20 26 11 14 1012.9 - 0.0
05/06:30am 23.0 17.8 5.5 32 8.8 NNE 22 28 12 15 1012.7 - 0.0
05/06:00am 22.0 17.2 5.7 34 8.2 NE 20 24 11 13 1012.3 1012.1 0.0
05/05:30am 21.7 17.0 5.9 35 7.9 NNE 20 22 11 12 1012.0 - 0.0
05/05:00am 22.3 17.6 5.9 34 8.3 NNE 20 24 11 13 1011.8 - 0.0
05/04:30am 20.8 16.9 7.1 41 7.0 NNE 17 19 9 10 1011.4 - 0.0
05/04:00am 19.3 16.7 9.5 53 5.2 NNE 13 17 7 9 1011.3 - 0.0
05/03:30am 18.8 17.1 12.4 66 3.6 NE 13 15 7 8 1011.3 - 0.0
05/03:00am 17.9 16.9 14.5 80 2.0 NE 13 15 7 8 1011.3 1011.1 0.0
05/02:30am 18.1 17.2 14.8 81 1.9 NNE 13 17 7 9 1011.4 - 0.0
05/02:00am 17.3 17.0 14.4 83 1.7 NE 9 11 5 6 1011.6 - 0.0
05/01:30am 17.6 17.8 14.7 83 1.7 E 7 9 4 5 1011.8 - 0.0
05/01:00am 18.8 18.8 15.3 80 2.1 SE 9 9 5 5 1012.1 - 0.0
05/12:30am 18.5 19.1 15.7 84 1.7 ESE 7 9 4 5 1012.3 - 0.0
05/12:00am 19.7 19.9 16.7 83 1.8 SE 11 13 6 7 1012.5 1012.3 0.0
 
Date/Time
WST
Temp
°C
App
Temp
°C
Dew
Point
Rel
Hum
%
Delta-T
°C
Wind Press
QNH
hPa
Press
MSL
hPa
Rain
since 9 am
mm
Dir
 
Spd
km/h
Gust
km/h
Spd
kts
Gust
kts
04/11:30pm 20.8 21.0 17.6 82 2.0 SSE 13 15 7 8 1012.7 - 0.0
04/11:00pm 21.8 21.6 17.6 77 2.6 SSE 15 17 8 9 1012.7 - 0.0
04/10:30pm 22.7 21.3 17.0 70 3.5 SSE 20 24 11 13 1012.8 - 0.0
04/10:00pm 23.2 21.1 16.1 64 4.3 SSE 22 28 12 15 1013.0 - 0.0
04/09:30pm 23.6 20.9 15.7 61 4.8 SSE 24 32 13 17 1013.0 - 0.0
04/09:00pm 24.0 21.7 14.6 55 5.6 SSE 20 30 11 16 1013.1 1012.9 0.0
04/08:30pm 24.5 20.8 13.8 51 6.3 SSE 26 32 14 17 1012.8 - 0.0
04/08:00pm 24.8 20.5 13.2 48 6.8 SSE 28 37 15 20 1012.7 - 0.0
04/07:30pm 25.7 20.5 11.7 41 8.0 SSE 30 41 16 22 1012.4 - 0.0
04/07:00pm 26.6 20.6 10.8 37 8.9 SSE 33 44 18 24 1012.3 - 0.0
04/06:51pm 26.9 20.4 10.5 35 9.2 SSE 35 54 19 29 1012.1 - 0.0

Other Formats:

Comma delimited format used in spreadsheet applications
http://www.bom.gov.au/fwo/IDW60801/IDW60801.94403.axf

JavaScript Object Notation format (JSON) in row-major order
http://www.bom.gov.au/fwo/IDW60801/IDW60801.94403.json